Time;durP1;ratioP1;P1;durP2;ratioP2;P2;SDS_P1;SDS_P2;PMS_P1;PMS_P2;Temp;Humidity;BMP_temperature;BMP_pressure;BME280_temperature;BME280_humidity;BME280_pressure;Samples;Min_cycle;Max_cycle;Signal;HPM_P1;HPM_P2
2023/09/06 00:33:03;;;;;;;26.08;15.48;;;;;;;15.16;100.00;100961.88;5054184;28;20094;-87
2023/09/06 00:35:29;;;;;;;24.73;14.93;;;;;;;15.25;100.00;100965.28;5052629;28;20388;-87
2023/09/06 00:37:55;;;;;;;27.27;14.00;;;;;;;15.25;100.00;100954.44;5052528;28;20088;-87
2023/09/06 00:40:21;;;;;;;27.58;14.95;;;;;;;15.21;100.00;100959.41;5053003;28;20079;-87
2023/09/06 00:43:01;;;;;;;28.05;14.23;;;;;;;15.18;100.00;100952.53;5069621;28;20036;-87
2023/09/06 00:45:48;;;;;;;22.60;13.98;;;;;;;15.14;100.00;100961.28;5036772;28;20056;-87
2023/09/06 00:48:23;;;;;;;20.73;13.13;;;;;;;15.08;100.00;100956.66;5036076;28;20036;-87
2023/09/06 00:50:52;;;;;;;26.17;13.80;;;;;;;14.94;100.00;100962.00;5036137;28;20094;-87
2023/09/06 00:53:20;;;;;;;21.50;13.75;;;;;;;14.88;100.00;100956.56;5019533;28;20044;-87
2023/09/06 00:55:48;;;;;;;30.50;14.60;;;;;;;14.81;100.00;100953.78;5052058;28;20029;-86
2023/09/06 00:58:17;;;;;;;25.20;14.80;;;;;;;14.77;100.00;100949.81;5069579;28;20094;-86
2023/09/06 01:00:48;;;;;;;24.67;15.07;;;;;;;14.62;100.00;100957.22;5052294;28;20032;-86
2023/09/06 01:03:15;;;;;;;23.65;13.98;;;;;;;14.47;100.00;100949.16;5036081;28;20033;-87
2023/09/06 01:05:51;;;;;;;27.15;15.10;;;;;;;14.34;100.00;100949.88;5035812;28;20064;-87
2023/09/06 01:08:20;;;;;;;27.58;14.73;;;;;;;14.25;100.00;100967.28;5052763;28;20029;-86
2023/09/06 01:10:46;;;;;;;27.20;14.93;;;;;;;14.25;100.00;100973.53;5069584;28;20072;-87
2023/09/06 01:13:12;;;;;;;22.75;13.20;;;;;;;14.37;100.00;100970.28;5052055;28;20525;-87
2023/09/06 01:15:42;;;;;;;32.55;14.60;;;;;;;14.50;100.00;100967.69;5035852;28;20033;-86
2023/09/06 01:18:08;;;;;;;32.38;15.68;;;;;;;14.39;100.00;100963.66;5035762;28;20029;-85
2023/09/06 01:20:51;;;;;;;32.55;16.85;;;;;;;14.28;100.00;100964.19;5035387;28;20036;-86
2023/09/06 01:23:37;;;;;;;27.17;15.77;;;;;;;14.06;100.00;100949.88;5052055;28;20471;-86
2023/09/06 01:26:03;;;;;;;36.22;17.73;;;;;;;14.10;100.00;100964.66;5035750;28;20039;-86
2023/09/06 01:28:29;;;;;;;32.85;17.85;;;;;;;13.98;100.00;100963.53;5035638;28;20044;-87
2023/09/06 01:30:55;;;;;;;31.10;15.23;;;;;;;13.91;100.00;100966.16;5052062;28;20475;-86
2023/09/06 01:33:22;;;;;;;26.48;15.52;;;;;;;13.73;100.00;100973.84;5054488;28;20029;-86
2023/09/06 01:35:51;;;;;;;24.10;14.48;;;;;;;13.56;100.00;100962.44;5056006;28;20095;-87
2023/09/06 01:38:17;;;;;;;25.67;13.88;;;;;;;13.44;100.00;100970.19;5039568;28;20055;-87
2023/09/06 01:40:43;;;;;;;28.63;14.80;;;;;;;13.41;100.00;100979.50;5039304;28;20418;-86
2023/09/06 01:43:09;;;;;;;32.95;15.77;;;;;;;13.38;100.00;100968.25;5055788;28;20115;-86
2023/09/06 01:45:37;;;;;;;37.58;17.92;;;;;;;13.33;100.00;100973.38;5056009;28;20120;-86
2023/09/06 01:48:03;;;;;;;47.15;18.33;;;;;;;13.33;100.00;100973.38;5039260;28;20035;-86
2023/09/06 01:50:28;;;;;;;37.30;17.60;;;;;;;13.27;100.00;100974.16;5055505;28;20033;-86
2023/09/06 01:52:55;;;;;;;36.45;17.80;;;;;;;13.27;100.00;100960.66;5038812;28;20381;-87
2023/09/06 01:55:21;;;;;;;44.50;19.88;;;;;;;13.24;100.00;100953.72;5039614;28;20037;-86
2023/09/06 01:57:47;;;;;;;34.13;17.92;;;;;;;13.22;100.00;100958.47;5055371;28;20028;-86
2023/09/06 02:00:23;;;;;;;41.45;17.52;;;;;;;13.09;100.00;100964.53;5055641;28;20047;-86
2023/09/06 02:02:48;;;;;;;42.25;18.92;;;;;;;13.04;100.00;100964.25;5040414;28;20123;-87
2023/09/06 02:05:14;;;;;;;37.13;17.88;;;;;;;12.98;100.00;100948.81;5055696;28;20029;-86
2023/09/06 02:07:40;;;;;;;44.63;20.25;;;;;;;12.98;100.00;100959.63;5039553;28;20081;-87
2023/09/06 02:10:07;;;;;;;50.47;20.33;;;;;;;13.03;100.00;100957.19;5055025;28;20041;-87
2023/09/06 02:12:33;;;;;;;48.10;20.70;;;;;;;13.19;100.00;100948.06;5055355;28;20483;-86
2023/09/06 02:14:59;;;;;;;55.63;22.15;;;;;;;13.17;100.00;100942.00;5038988;28;20237;-86
2023/09/06 02:17:24;;;;;;;51.92;21.15;;;;;;;13.16;100.00;100946.56;5055239;28;20029;-87
2023/09/06 02:19:50;;;;;;;62.13;23.38;;;;;;;13.09;100.00;100936.69;5057293;28;20096;-86
2023/09/06 02:22:16;;;;;;;52.78;21.95;;;;;;;13.06;100.00;100934.38;5038750;28;20039;-86
2023/09/06 02:24:42;;;;;;;43.83;19.33;;;;;;;13.07;100.00;100936.03;5038871;28;20039;-86
2023/09/06 02:27:10;;;;;;;53.63;22.75;;;;;;;13.06;100.00;100937.09;5054951;28;20120;-87
2023/09/06 02:29:36;;;;;;;54.42;20.58;;;;;;;13.07;100.00;100936.91;5038879;28;20460;-89
2023/09/06 02:32:01;;;;;;;53.33;22.65;;;;;;;13.19;100.00;100948.06;5054944;28;20120;-87
2023/09/06 02:34:27;;;;;;;64.55;25.42;;;;;;;13.22;100.00;100946.84;5054906;28;20029;-86
2023/09/06 02:36:52;;;;;;;64.47;24.52;;;;;;;13.19;100.00;100956.16;5055488;28;20033;-86
2023/09/06 02:39:18;;;;;;;62.13;23.42;;;;;;;13.10;100.00;100952.72;5038238;28;20380;-85
2023/09/06 02:41:45;;;;;;;59.45;23.52;;;;;;;13.10;100.00;100951.91;5038244;28;20033;-85
2023/09/06 02:44:10;;;;;;;64.32;24.27;;;;;;;13.24;100.00;100944.78;5053180;28;20036;-86
2023/09/06 02:46:36;;;;;;;63.75;24.30;;;;;;;13.27;100.00;100947.16;5054720;28;20387;-85
2023/09/06 02:49:11;;;;;;;65.85;27.20;;;;;;;13.35;100.00;100949.75;5055153;28;20025;-85
2023/09/06 02:51:43;;;;;;;77.82;26.35;;;;;;;13.32;100.00;100942.00;5039168;28;20053;-86
2023/09/06 02:54:13;;;;;;;65.60;26.30;;;;;;;13.39;100.00;100951.88;5038963;28;20479;-85
2023/09/06 02:56:40;;;;;;;70.57;25.27;;;;;;;13.41;100.00;100948.97;5021744;28;20033;-86
2023/09/06 02:59:07;;;;;;;77.57;28.25;;;;;;;13.36;100.00;100948.69;5054234;28;20104;-85
2023/09/06 03:01:35;;;;;;;65.82;25.55;;;;;;;13.43;100.00;100944.22;5071196;28;20443;-85
2023/09/06 03:04:06;;;;;;;61.33;24.58;;;;;;;13.46;100.00;100940.31;5037692;28;20033;-85
2023/09/06 03:06:33;;;;;;;60.50;25.40;;;;;;;13.38;100.00;100949.34;5054131;28;20032;-85
2023/09/06 03:08:59;;;;;;;62.92;23.85;;;;;;;13.33;100.00;100936.41;5054025;28;20025;-85
2023/09/06 03:11:25;;;;;;;51.08;21.48;;;;;;;13.25;100.00;100930.25;5037829;28;20029;-85
2023/09/06 03:13:55;;;;;;;56.08;22.30;;;;;;;13.22;100.00;100949.53;5037707;28;20037;-85
2023/09/06 03:16:22;;;;;;;52.75;20.98;;;;;;;13.18;100.00;100955.31;5054699;28;20037;-86
2023/09/06 03:18:49;;;;;;;56.60;21.70;;;;;;;13.17;100.00;100950.09;5037717;28;20464;-87
2023/09/06 03:21:16;;;;;;;63.72;23.25;;;;;;;13.28;100.00;100948.81;5053756;28;20041;-85
2023/09/06 03:23:45;;;;;;;59.03;23.00;;;;;;;13.31;100.00;100951.13;5037781;28;20044;-86
2023/09/06 03:26:11;;;;;;;69.75;24.92;;;;;;;13.34;100.00;100953.47;5037758;28;20036;-85
2023/09/06 03:28:40;;;;;;;60.65;23.25;;;;;;;13.27;100.00;100950.69;5054156;28;20036;-85
2023/09/06 03:31:09;;;;;;;66.47;24.65;;;;;;;13.23;100.00;100951.19;5054146;28;20075;-85
2023/09/06 03:33:39;;;;;;;67.43;23.02;;;;;;;13.26;100.00;100957.13;5037516;28;20123;-85
2023/09/06 03:36:09;;;;;;;60.33;23.00;;;;;;;13.14;100.00;100948.59;5037734;28;20036;-85
2023/09/06 03:38:36;;;;;;;57.83;22.73;;;;;;;13.13;100.00;100962.31;5054274;28;20460;-85
2023/09/06 03:41:03;;;;;;;62.13;23.60;;;;;;;13.15;100.00;100961.09;5037108;28;20471;-85
2023/09/06 03:43:32;;;;;;;71.63;24.98;;;;;;;13.16;100.00;100962.75;5053632;28;20036;-85
2023/09/06 03:45:58;;;;;;;68.82;24.25;;;;;;;13.25;100.00;100957.25;5037303;28;20379;-85
2023/09/06 03:48:27;;;;;;;75.60;24.90;;;;;;;13.33;100.00;100960.72;5020536;28;20033;-85
2023/09/06 03:50:57;;;;;;;68.10;24.25;;;;;;;13.40;100.00;100960.81;5036750;28;20033;-86
2023/09/06 03:53:27;;;;;;;67.25;23.58;;;;;;;13.47;100.00;100961.72;5020568;28;20036;-85
2023/09/06 03:59:35;;;;;;;74.50;24.48;;;;;;;13.44;100.00;100962.09;5054440;28;20114;-85
2023/09/06 04:02:02;;;;;;;76.65;24.65;;;;;;;13.37;100.00;100964.72;5036559;28;20387;-85
2023/09/06 04:04:29;;;;;;;75.32;24.38;;;;;;;13.28;100.00;100956.91;5036757;28;20025;-84
2023/09/06 04:06:55;;;;;;;68.65;23.80;;;;;;;13.35;100.00;100965.94;5053074;28;20041;-84
2023/09/06 04:09:27;;;;;;;74.70;23.50;;;;;;;13.37;100.00;100969.28;5053089;28;20377;-84
2023/09/06 04:11:54;;;;;;;82.10;26.00;;;;;;;13.46;100.00;100960.03;5054277;28;20029;-85
2023/09/06 04:14:22;;;;;;;86.25;26.10;;;;;;;13.73;100.00;100968.44;5036498;28;20036;-84
2023/09/06 04:16:49;;;;;;;82.60;25.40;;;;;;;14.00;100.00;100970.41;5020417;28;20035;-84
2023/09/06 04:19:14;;;;;;;91.50;28.08;;;;;;;14.30;100.00;100975.66;5052871;28;20033;-84
2023/09/06 04:21:40;;;;;;;97.55;29.80;;;;;;;14.54;100.00;100970.91;5052860;28;20081;-84
2023/09/06 04:24:07;;;;;;;98.50;30.95;;;;;;;14.70;100.00;100973.28;5052888;28;20056;-84
2023/09/06 04:26:34;;;;;;;87.75;29.65;;;;;;;14.82;100.00;100976.28;5036423;28;20081;-85
2023/09/06 04:29:02;;;;;;;104.05;28.20;;;;;;;14.97;100.00;100979.72;5036381;28;20032;-87
2023/09/06 04:31:29;;;;;;;79.57;27.75;;;;;;;15.09;100.00;100980.84;5052616;28;20036;-85
2023/09/06 04:33:57;;;;;;;81.50;29.88;;;;;;;15.15;100.00;100974.59;5053136;28;20064;-85
2023/09/06 04:36:46;;;;;;;87.47;31.25;;;;;;;15.27;100.00;100980.31;5053358;28;20028;-85
2023/09/06 04:39:11;;;;;;;75.70;29.45;;;;;;;15.31;100.00;100981.56;5036240;28;20396;-85
2023/09/06 04:41:37;;;;;;;73.40;30.20;;;;;;;15.35;100.00;100980.13;5053075;28;20475;-85
2023/09/06 04:44:03;;;;;;;69.00;27.23;;;;;;;15.38;100.00;100977.00;5052832;28;20355;-85
2023/09/06 04:46:30;;;;;;;66.55;27.08;;;;;;;15.46;100.00;100992.25;5070397;28;20033;-84
2023/09/06 04:48:56;;;;;;;64.47;26.75;;;;;;;15.50;100.00;100987.25;5053763;28;20387;-84
2023/09/06 04:51:21;;;;;;;46.38;21.27;;;;;;;15.55;100.00;100991.03;5053172;28;20038;-84
2023/09/06 04:53:48;;;;;;;56.30;23.10;;;;;;;15.60;100.00;100975.00;5052389;28;20468;-85
2023/09/06 04:56:16;;;;;;;47.67;21.35;;;;;;;15.59;100.00;100980.63;5052418;28;20029;-85
2023/09/06 04:58:41;;;;;;;45.15;21.13;;;;;;;15.50;100.00;100979.13;5052164;28;20475;-84
2023/09/06 05:01:07;;;;;;;36.33;18.08;;;;;;;15.32;100.00;100974.25;5052216;28;20025;-85
2023/09/06 05:03:35;;;;;;;31.13;15.85;;;;;;;15.23;100.00;100981.72;5052013;28;20108;-85
2023/09/06 05:06:01;;;;;;;34.65;16.15;;;;;;;15.17;100.00;100977.13;5052133;28;20394;-85
2023/09/06 05:08:27;;;;;;;36.05;16.40;;;;;;;15.18;100.00;100978.78;5038544;28;20029;-85
2023/09/06 05:10:53;;;;;;;35.85;16.05;;;;;;;15.30;100.00;100984.47;5056173;28;20098;-86
2023/09/06 05:13:18;;;;;;;35.63;16.05;;;;;;;15.44;100.00;100985.38;5056329;28;20356;-85
2023/09/06 05:15:44;;;;;;;31.42;15.82;;;;;;;15.46;100.00;100986.00;5056303;28;20025;-85
2023/09/06 05:18:09;;;;;;;27.83;13.98;;;;;;;15.43;100.00;100989.09;5039784;28;20025;-85
2023/09/06 05:20:37;;;;;;;23.42;13.10;;;;;;;15.48;100.00;100987.47;5039361;28;20119;-85
2023/09/06 05:23:11;;;;;;;24.40;13.90;;;;;;;15.58;100.00;100987.09;5023406;28;20064;-85
2023/09/06 05:25:37;;;;;;;21.90;12.60;;;;;;;15.68;100.00;100990.25;5055853;28;20467;-84
2023/09/06 05:28:09;;;;;;;25.25;11.23;;;;;;;15.76;100.00;100983.84;5039637;28;20048;-85
2023/09/06 05:30:39;;;;;;;20.80;11.20;;;;;;;15.80;100.00;100987.81;5057061;28;20083;-87
2023/09/06 05:33:05;;;;;;;14.23;9.80;;;;;;;15.87;100.00;100988.66;5023798;28;20047;-85
2023/09/06 05:35:31;;;;;;;19.33;9.88;;;;;;;15.94;100.00;100994.94;5073035;28;20096;-86
2023/09/06 05:37:56;;;;;;;13.00;8.52;;;;;;;16.01;100.00;100992.25;5072655;28;20429;-85
2023/09/06 05:40:26;;;;;;;15.13;8.15;;;;;;;16.04;100.00;100983.69;5057110;28;20041;-87
2023/09/06 05:42:51;;;;;;;14.00;9.13;;;;;;;16.09;100.00;100980.34;5056012;28;20025;-85
2023/09/06 05:45:19;;;;;;;15.63;7.90;;;;;;;16.11;100.00;100979.09;5072555;28;20032;-86
2023/09/06 05:47:45;;;;;;;17.38;8.20;;;;;;;16.13;100.00;100968.88;5055747;28;20090;-85
2023/09/06 05:50:11;;;;;;;12.00;7.35;;;;;;;16.16;100.00;100978.47;5056683;28;20361;-85
2023/09/06 05:52:37;;;;;;;11.10;7.30;;;;;;;16.22;100.00;100980.34;5055599;28;20478;-85
2023/09/06 05:55:03;;;;;;;10.52;7.13;;;;;;;16.30;100.00;100982.03;5039313;28;20037;-85
2023/09/06 05:57:32;;;;;;;12.93;7.72;;;;;;;16.37;100.00;100991.03;5055528;28;20025;-85
2023/09/06 05:59:58;;;;;;;13.13;7.57;;;;;;;16.42;100.00;100988.53;5055553;28;20037;-86
2023/09/06 06:02:24;;;;;;;17.00;7.18;;;;;;;16.43;100.00;100979.31;5038886;28;20067;-85
2023/09/06 06:04:50;;;;;;;10.77;6.80;;;;;;;16.48;100.00;100985.81;5039161;28;20118;-85
2023/09/06 06:07:17;;;;;;;13.63;6.70;;;;;;;16.54;100.00;100995.00;5055328;28;20044;-85
2023/09/06 06:09:44;;;;;;;9.93;6.38;;;;;;;16.59;100.00;100994.34;5039093;28;20029;-85
2023/09/06 06:12:10;;;;;;;10.60;7.10;;;;;;;16.63;100.00;101001.88;5022472;28;20456;-86
2023/09/06 06:14:36;;;;;;;13.23;6.35;;;;;;;16.68;100.00;101001.25;5022580;28;20029;-86
2023/09/06 06:17:06;;;;;;;13.02;6.55;;;;;;;16.70;100.00;100991.84;5022082;28;20521;-86
2023/09/06 06:19:35;;;;;;;15.07;6.65;;;;;;;16.74;100.00;100994.13;5038090;28;20057;-85
2023/09/06 06:22:04;;;;;;;10.88;6.13;;;;;;;16.78;100.00;100990.00;5039214;28;20480;-85
2023/09/06 06:24:30;;;;;;;10.13;6.68;;;;;;;16.80;100.00;100972.41;5056367;28;20507;-85
2023/09/06 06:26:56;;;;;;;9.80;6.75;;;;;;;16.81;100.00;100967.84;5022121;28;20090;-85
2023/09/06 06:29:22;;;;;;;11.07;6.25;;;;;;;16.81;100.00;100978.72;5055202;28;20029;-86
2023/09/06 06:31:48;;;;;;;14.95;6.75;;;;;;;16.87;100.00;100977.84;5054902;28;20025;-86
2023/09/06 06:34:14;;;;;;;16.95;6.75;;;;;;;16.96;100.00;100994.75;5055909;28;20103;-85
2023/09/06 06:36:41;;;;;;;15.40;7.35;;;;;;;17.01;100.00;100993.06;5038274;28;20274;-85
2023/09/06 06:39:07;;;;;;;11.90;6.40;;;;;;;17.05;100.00;101001.66;5055957;28;20029;-85
2023/09/06 06:41:33;;;;;;;10.75;5.95;;;;;;;17.05;100.00;100996.22;5055541;28;20510;-85
2023/09/06 06:43:58;;;;;;;14.30;6.57;;;;;;;17.06;100.00;100992.44;5055929;28;20033;-85
2023/09/06 06:46:29;;;;;;;16.02;5.97;;;;;;;17.09;100.00;100994.72;5055817;28;20430;-85
2023/09/06 06:48:56;;;;;;;10.95;5.28;;;;;;;17.09;100.00;100989.28;5021506;28;20029;-86
2023/09/06 06:51:35;;;;;;;8.10;5.65;;;;;;;17.11;100.00;100984.47;5054457;28;20032;-88
2023/09/06 06:54:14;;;;;;;10.75;6.13;;;;;;;17.09;100.00;100976.56;5024100;28;20102;-86
2023/09/06 06:56:40;;;;;;;10.93;5.63;;;;;;;17.22;100.00;100985.69;5056408;28;20045;-87
2023/09/06 06:59:07;;;;;;;12.93;5.40;;;;;;;17.43;100.00;100993.56;5056652;28;20064;-85
2023/09/06 07:01:33;;;;;;;15.00;6.30;;;;;;;17.66;100.00;101014.81;5056052;28;20502;-87
2023/09/06 07:04:00;;;;;;;10.90;5.50;;;;;;;18.07;100.00;101015.44;5055640;28;20033;-87
2023/09/06 07:06:26;;;;;;;9.15;5.20;;;;;;;18.06;100.00;101035.56;5054619;28;20029;-90
2023/09/06 07:08:53;;;;;;;10.88;5.53;;;;;;;18.10;100.00;101042.22;5057550;28;20028;-88
2023/09/06 07:11:19;;;;;;;14.25;5.55;;;;;;;18.05;100.00;101048.34;5058122;28;20048;-87
2023/09/06 07:13:47;;;;;;;11.50;6.43;;;;;;;18.06;100.00;101047.28;5039683;28;20118;-87
2023/09/06 07:16:14;;;;;;;15.35;4.97;;;;;;;18.07;100.00;101048.09;5053872;28;20032;-89
2023/09/06 07:18:39;;;;;;;10.07;5.07;;;;;;;18.07;100.00;101053.53;5053942;28;20029;-89
2023/09/06 07:21:05;;;;;;;10.23;5.00;;;;;;;18.02;100.00;101055.03;5055085;28;20037;-87
2023/09/06 07:23:31;;;;;;;10.00;4.70;;;;;;;18.07;100.00;101058.97;5071150;28;20391;-91
2023/09/06 07:26:00;;;;;;;9.85;5.32;;;;;;;18.13;100.00;101058.97;5056591;28;20036;-87
2023/09/06 07:28:31;;;;;;;10.15;4.68;;;;;;;18.27;100.00;101056.16;5040788;28;20041;-88
2023/09/06 07:31:02;;;;;;;14.35;5.28;;;;;;;18.31;100.00;101051.91;5080078;28;20037;-90
2023/09/06 07:33:27;;;;;;;8.43;4.63;;;;;;;18.23;100.00;101053.88;5055235;28;20031;-87
2023/09/06 07:35:53;;;;;;;10.40;4.80;;;;;;;18.15;100.00;101058.72;5053974;28;20029;-89
2023/09/06 07:38:19;;;;;;;12.35;4.93;;;;;;;18.11;100.00;101062.94;5053808;28;20486;-87
2023/09/06 07:40:44;;;;;;;11.07;5.00;;;;;;;18.08;100.00;101064.22;5054509;28;20037;-88
2023/09/06 07:43:13;;;;;;;9.65;5.25;;;;;;;18.05;100.00;101066.53;5053840;28;20128;-91
2023/09/06 07:45:42;;;;;;;8.38;4.90;;;;;;;18.09;100.00;101070.50;5070349;28;20086;-89
2023/09/06 07:48:08;;;;;;;10.55;5.25;;;;;;;18.15;100.00;101075.91;5053553;28;20025;-89
2023/09/06 07:50:34;;;;;;;13.07;4.90;;;;;;;18.23;100.00;101081.09;5054015;28;20033;-88
2023/09/06 07:52:59;;;;;;;12.23;5.20;;;;;;;18.33;100.00;101087.94;5037642;28;20037;-86
2023/09/06 07:55:25;;;;;;;9.10;5.13;;;;;;;18.44;100.00;101087.22;5054734;28;20036;-88
2023/09/06 07:57:50;;;;;;;9.43;5.40;;;;;;;18.55;100.00;101088.41;5054966;28;20067;-88
2023/09/06 08:00:16;;;;;;;14.15;5.35;;;;;;;18.62;100.00;101086.47;5053857;28;20021;-90
2023/09/06 08:02:42;;;;;;;11.10;5.00;;;;;;;18.68;100.00;101089.16;5054884;28;20029;-88
2023/09/06 08:05:08;;;;;;;9.63;4.80;;;;;;;18.75;100.00;101089.13;5054100;28;20044;-87
2023/09/06 08:07:35;;;;;;;11.50;5.50;;;;;;;18.86;100.00;101085.66;5054090;28;20026;-88
2023/09/06 08:10:01;;;;;;;13.43;5.38;;;;;;;18.96;100.00;101097.97;5056762;28;20040;-87
2023/09/06 08:12:27;;;;;;;12.32;4.95;;;;;;;19.03;100.00;101096.88;5040141;28;20446;-88
2023/09/06 08:14:52;;;;;;;10.20;4.28;;;;;;;19.08;100.00;101101.66;5056824;28;20490;-88
2023/09/06 08:17:18;;;;;;;11.80;5.20;;;;;;;19.11;100.00;101109.38;5053533;28;20039;-87
2023/09/06 08:19:43;;;;;;;11.77;4.72;;;;;;;19.13;100.00;101118.13;5037066;28;20032;-91
2023/09/06 08:22:09;;;;;;;11.15;4.85;;;;;;;19.22;100.00;101115.97;5052977;28;20029;-87
2023/09/06 08:24:34;;;;;;;11.20;7.43;;;;;;;19.35;100.00;101115.03;5054221;28;20029;-92
2023/09/06 08:27:00;;;;;;;14.70;7.53;;;;;;;19.42;100.00;101110.31;5054393;28;20052;-87
2023/09/06 08:29:33;;;;;;;16.75;8.13;;;;;;;19.45;100.00;101115.31;5055777;28;20111;-88
2023/09/06 08:31:58;;;;;;;10.20;5.47;;;;;;;19.41;100.00;101125.03;5057967;28;20029;-87
2023/09/06 08:34:24;;;;;;;14.02;5.03;;;;;;;19.45;100.00;101126.22;5071999;28;20029;-87
2023/09/06 08:36:51;;;;;;;9.95;4.47;;;;;;;19.68;100.00;101115.50;5063183;28;20116;-88
2023/09/06 08:39:25;;;;;;;10.13;4.88;;;;;;;20.06;100.00;101121.75;5053898;28;20029;-88
2023/09/06 08:41:51;;;;;;;9.82;5.00;;;;;;;20.32;100.00;101121.44;5036746;28;20036;-88
2023/09/06 08:44:18;;;;;;;10.63;4.32;;;;;;;20.44;100.00;101118.72;5036137;28;20044;-89
2023/09/06 08:46:45;;;;;;;7.25;3.83;;;;;;;20.51;100.00;101124.94;5036150;28;20135;-89
2023/09/06 08:49:11;;;;;;;9.00;4.03;;;;;;;20.64;100.00;101132.97;5036101;28;20037;-88
2023/09/06 08:51:38;;;;;;;9.88;3.65;;;;;;;20.95;100.00;101121.97;5052614;28;20058;-88
2023/09/06 08:54:07;;;;;;;10.38;3.85;;;;;;;21.30;100.00;101114.63;5052609;28;20033;-88
2023/09/06 08:56:35;;;;;;;8.77;3.80;;;;;;;21.55;100.00;101110.00;5069152;28;20036;-88
2023/09/06 08:59:07;;;;;;;8.75;3.80;;;;;;;21.64;100.00;101105.78;5052276;28;20025;-87
2023/09/06 09:01:35;;;;;;;8.23;3.30;;;;;;;21.79;100.00;101113.50;5036046;28;20033;-88
2023/09/06 09:04:01;;;;;;;8.60;3.30;;;;;;;21.97;100.00;101120.72;5035883;28;20368;-87
2023/09/06 09:06:29;;;;;;;8.38;3.45;;;;;;;22.11;100.00;101119.34;5052152;28;20040;-88
2023/09/06 09:08:55;;;;;;;10.20;3.40;;;;;;;22.21;100.00;101122.34;5069129;28;20037;-87
2023/09/06 09:11:20;;;;;;;8.55;3.13;;;;;;;22.25;100.00;101118.00;5068900;28;20451;-88
2023/09/06 09:13:46;;;;;;;9.50;3.47;;;;;;;22.16;100.00;101111.25;5019081;28;20136;-88
2023/09/06 09:16:14;;;;;;;8.10;3.28;;;;;;;22.12;100.00;101102.69;5052249;28;20383;-88
2023/09/06 09:18:42;;;;;;;8.02;3.30;;;;;;;22.07;100.00;101120.91;5035773;28;20040;-88
2023/09/06 09:21:09;;;;;;;7.70;3.00;;;;;;;21.94;100.00;101111.91;5035659;28;20052;-89
2023/09/06 09:23:50;;;;;;;8.45;3.05;;;;;;;21.79;100.00;101116.25;5035843;28;20040;-88
2023/09/06 09:26:19;;;;;;;10.77;2.90;;;;;;;21.63;100.00;101126.03;5020409;28;20122;-88
2023/09/06 09:28:45;;;;;;;6.13;3.00;;;;;;;21.46;100.00;101125.91;5053095;28;20387;-88
2023/09/06 09:31:14;;;;;;;9.60;3.15;;;;;;;21.53;100.00;101115.69;5052969;28;20040;-88
2023/09/06 09:33:43;;;;;;;7.43;3.28;;;;;;;21.73;100.00;101110.66;5036081;28;20044;-90
2023/09/06 09:36:17;;;;;;;5.88;2.67;;;;;;;22.14;100.00;101116.94;5036308;28;20040;-88
2023/09/06 09:38:50;;;;;;;6.45;2.80;;;;;;;22.25;100.00;101120.75;5052785;28;20088;-85
2023/09/06 09:41:17;;;;;;;7.25;2.58;;;;;;;22.04;100.00;101124.13;5035784;28;20118;-89
2023/09/06 09:43:42;;;;;;;4.97;2.60;;;;;;;22.00;100.00;101120.25;5052162;28;20478;-86
2023/09/06 09:46:09;;;;;;;5.95;2.30;;;;;;;22.15;100.00;101117.81;5036050;28;20072;-87
2023/09/06 09:48:36;;;;;;;4.65;2.00;;;;;;;22.15;100.00;101115.91;5056758;28;20031;-85
2023/09/06 09:51:04;;;;;;;7.32;3.05;;;;;;;21.97;100.00;101112.53;5056753;28;20095;-86
2023/09/06 09:53:31;;;;;;;8.90;3.30;;;;;;;21.73;100.00;101110.66;5055257;28;20039;-87
2023/09/06 09:55:59;;;;;;;7.10;2.55;;;;;;;22.58;100.00;101113.69;5039264;28;20116;-85
2023/09/06 09:58:26;;;;;;;8.82;3.15;;;;;;;23.25;100.00;101110.16;5039204;28;20031;-86
2023/09/06 10:00:53;;;;;;;7.90;2.35;;;;;;;23.25;100.00;101113.72;5022661;28;20442;-86
2023/09/06 10:03:21;;;;;;;8.43;3.05;;;;;;;23.01;100.00;101117.72;5072327;28;20029;-87
2023/09/06 10:05:47;;;;;;;7.82;2.80;;;;;;;22.98;100.00;101120.97;5055564;28;20035;-87
2023/09/06 10:08:13;;;;;;;8.30;2.70;;;;;;;23.48;100.00;101131.88;5055533;28;20025;-86
2023/09/06 10:10:40;;;;;;;10.57;3.38;;;;;;;24.47;100.00;101127.38;5056646;28;20033;-86
2023/09/06 10:13:09;;;;;;;7.15;2.50;;;;;;;24.25;100.00;101129.31;5021536;28;20082;-87
2023/09/06 10:15:35;;;;;;;8.98;3.83;;;;;;;24.20;100.00;101126.50;5036413;28;20123;-88
2023/09/06 10:18:01;;;;;;;10.77;4.05;;;;;;;24.41;100.00;101119.31;5036263;28;20032;-86
2023/09/06 10:20:32;;;;;;;10.57;3.50;;;;;;;25.07;100.00;101121.84;5036562;28;20052;-85
2023/09/06 10:22:59;;;;;;;11.25;5.65;;;;;;;25.11;100.00;101123.81;5038360;28;20037;-86
2023/09/06 10:25:28;;;;;;;12.02;3.13;;;;;;;25.44;100.00;101124.59;5041245;28;20463;-86
2023/09/06 10:27:57;;;;;;;11.55;3.58;;;;;;;25.51;100.00;101124.34;5076143;28;20025;-89
2023/09/06 10:30:47;;;;;;;5.45;2.88;;;;;;;24.99;100.00;101125.91;5071285;28;20094;-86
2023/09/06 10:33:52;;;;;;;8.45;3.13;;;;;;;24.58;100.00;101117.28;5043333;28;20459;-86
2023/09/06 10:36:19;;;;;;;9.40;3.30;;;;;;;24.40;100.00;101115.72;5055507;28;20051;-87
2023/09/06 10:38:51;;;;;;;7.97;3.05;;;;;;;24.42;100.00;101108.03;5056150;28;20058;-87
2023/09/06 10:41:18;;;;;;;10.07;3.95;;;;;;;24.89;100.00;101112.91;5056211;28;20082;-88
2023/09/06 10:43:54;;;;;;;12.23;4.05;;;;;;;25.25;100.00;101110.44;5054691;28;20082;-87
2023/09/06 10:46:26;;;;;;;9.43;3.35;;;;;;;25.32;100.00;101110.19;5056141;28;20128;-88
2023/09/06 10:49:13;;;;;;;7.22;3.20;;;;;;;25.06;100.00;101118.28;5038558;28;20059;-89
2023/09/06 10:51:58;;;;;;;8.82;3.30;;;;;;;24.96;100.00;101115.44;5054662;28;20036;-88
2023/09/06 10:54:38;;;;;;;12.82;5.78;;;;;;;24.99;100.00;101114.91;5056560;28;20436;-87
2023/09/06 10:57:08;;;;;;;7.35;3.10;;;;;;;25.22;100.00;101103.53;5042094;28;20555;-87
2023/09/06 10:59:47;;;;;;;10.55;4.30;;;;;;;25.34;100.00;101105.25;5071602;28;20491;-88
2023/09/06 11:02:27;;;;;;;9.75;4.78;;;;;;;25.05;100.00;101097.34;5054634;28;20040;-88
2023/09/06 11:05:08;;;;;;;7.82;3.42;;;;;;;24.83;100.00;101097.44;5053626;28;20390;-87
2023/09/06 11:07:44;;;;;;;9.23;3.08;;;;;;;25.18;100.00;101099.66;5022584;28;20041;-88
2023/09/06 11:10:11;;;;;;;8.10;3.20;;;;;;;25.32;100.00;101105.50;5038187;28;20123;-88
2023/09/06 11:12:38;;;;;;;11.65;3.88;;;;;;;26.38;100.00;101105.41;5054034;28;20040;-88
2023/09/06 11:15:05;;;;;;;9.57;3.35;;;;;;;26.89;100.00;101103.53;5054414;28;20514;-88
2023/09/06 11:17:31;;;;;;;10.05;4.30;;;;;;;27.09;100.00;101105.44;5053796;28;20116;-88
2023/09/06 11:20:16;;;;;;;7.55;3.47;;;;;;;26.47;100.00;101099.09;5054335;28;20513;-89
2023/09/06 11:22:49;;;;;;;7.22;4.07;;;;;;;25.79;100.00;101099.16;5037773;28;20033;-89
2023/09/06 11:25:26;;;;;;;7.78;3.17;;;;;;;25.62;100.00;101093.84;5038635;28;20037;-90
2023/09/06 11:27:55;;;;;;;9.25;4.30;;;;;;;25.88;100.00;101094.00;5044643;28;20460;-89
2023/09/06 11:30:22;;;;;;;8.90;4.05;;;;;;;25.54;100.00;101097.13;5064441;28;20040;-88
2023/09/06 11:32:53;;;;;;;8.70;4.18;;;;;;;25.42;100.00;101094.56;5054740;28;20045;-88
2023/09/06 11:35:22;;;;;;;8.35;3.67;;;;;;;24.96;100.00;101108.00;5043546;28;20036;-89
2023/09/06 11:37:50;;;;;;;10.52;3.10;;;;;;;24.30;100.00;101112.88;5041830;28;20356;-88
2023/09/06 11:40:20;;;;;;;9.70;4.60;;;;;;;23.88;100.00;101103.34;5037534;28;20025;-88
2023/09/06 11:42:50;;;;;;;10.60;3.50;;;;;;;23.73;100.00;101116.03;5021485;28;20491;-89
2023/09/06 11:45:19;;;;;;;7.13;3.33;;;;;;;23.84;100.00;101106.84;5053950;28;20024;-89
2023/09/06 11:47:46;;;;;;;11.25;3.67;;;;;;;24.20;100.00;101115.50;5053956;28;20155;-89